sensor_id;sensor_type;location;lat;lon;timestamp;temperature;humidity
19898;DHT22;10111;50.814;4.572;2022-09-03T00:00:24;18.60;99.90
19898;DHT22;10111;50.814;4.572;2022-09-03T00:03:02;18.60;99.90
19898;DHT22;10111;50.814;4.572;2022-09-03T00:05:37;18.70;99.90
19898;DHT22;10111;50.814;4.572;2022-09-03T00:08:32;18.70;99.90
19898;DHT22;10111;50.814;4.572;2022-09-03T00:14:12;18.70;99.90
19898;DHT22;10111;50.814;4.572;2022-09-03T00:16:54;18.70;99.90
19898;DHT22;10111;50.814;4.572;2022-09-03T00:19:28;18.70;99.90
19898;DHT22;10111;50.814;4.572;2022-09-03T00:21:59;18.70;99.90
19898;DHT22;10111;50.814;4.572;2022-09-03T00:24:29;18.70;99.90
19898;DHT22;10111;50.814;4.572;2022-09-03T00:27:02;18.70;99.90
19898;DHT22;10111;50.814;4.572;2022-09-03T00:29:43;18.80;99.90
19898;DHT22;10111;50.814;4.572;2022-09-03T00:32:17;18.80;99.90
19898;DHT22;10111;50.814;4.572;2022-09-03T00:34:49;18.80;99.90
19898;DHT22;10111;50.814;4.572;2022-09-03T00:37:16;18.80;99.90
19898;DHT22;10111;50.814;4.572;2022-09-03T00:39:42;18.80;99.90
19898;DHT22;10111;50.814;4.572;2022-09-03T00:45:13;18.80;99.90
19898;DHT22;10111;50.814;4.572;2022-09-03T00:52:56;18.80;99.90
19898;DHT22;10111;50.814;4.572;2022-09-03T01:01:17;18.70;99.90
19898;DHT22;10111;50.814;4.572;2022-09-03T01:06:32;18.70;99.90
19898;DHT22;10111;50.814;4.572;2022-09-03T01:12:03;18.70;99.90
19898;DHT22;10111;50.814;4.572;2022-09-03T01:14:59;18.70;99.90
19898;DHT22;10111;50.814;4.572;2022-09-03T01:17:45;18.70;99.90
19898;DHT22;10111;50.814;4.572;2022-09-03T01:20:20;18.70;99.90
19898;DHT22;10111;50.814;4.572;2022-09-03T01:51:19;18.60;99.90
19898;DHT22;10111;50.814;4.572;2022-09-03T01:54:12;18.50;99.90
19898;DHT22;10111;50.814;4.572;2022-09-03T02:02:25;18.50;99.90
19898;DHT22;10111;50.814;4.572;2022-09-03T02:05:01;18.50;99.90
19898;DHT22;10111;50.814;4.572;2022-09-03T02:07:32;18.60;99.90
19898;DHT22;10111;50.814;4.572;2022-09-03T02:10:00;18.90;99.90
19898;DHT22;10111;50.814;4.572;2022-09-03T02:12:30;18.80;99.90
19898;DHT22;10111;50.814;4.572;2022-09-03T02:15:03;18.70;99.90
19898;DHT22;10111;50.814;4.572;2022-09-03T02:17:33;18.60;99.90
19898;DHT22;10111;50.814;4.572;2022-09-03T02:20:04;18.70;99.90
19898;DHT22;10111;50.814;4.572;2022-09-03T02:22:32;18.60;99.90
19898;DHT22;10111;50.814;4.572;2022-09-03T02:24:59;18.60;99.90
19898;DHT22;10111;50.814;4.572;2022-09-03T02:27:25;18.60;99.90
19898;DHT22;10111;50.814;4.572;2022-09-03T02:29:51;18.60;99.90
19898;DHT22;10111;50.814;4.572;2022-09-03T02:32:17;18.60;99.90
19898;DHT22;10111;50.814;4.572;2022-09-03T02:34:43;18.60;99.90
19898;DHT22;10111;50.814;4.572;2022-09-03T02:37:16;18.60;99.90
19898;DHT22;10111;50.814;4.572;2022-09-03T02:39:43;18.60;99.90
19898;DHT22;10111;50.814;4.572;2022-09-03T02:42:11;18.50;99.90
19898;DHT22;10111;50.814;4.572;2022-09-03T02:44:41;18.50;99.90
19898;DHT22;10111;50.814;4.572;2022-09-03T02:47:09;18.50;99.90
19898;DHT22;10111;50.814;4.572;2022-09-03T02:49:35;18.50;99.90
19898;DHT22;10111;50.814;4.572;2022-09-03T02:52:07;18.50;99.90
19898;DHT22;10111;50.814;4.572;2022-09-03T02:54:35;18.60;99.90
19898;DHT22;10111;50.814;4.572;2022-09-03T02:57:05;18.60;99.90
19898;DHT22;10111;50.814;4.572;2022-09-03T02:59:31;18.60;99.90
19898;DHT22;10111;50.814;4.572;2022-09-03T03:01:57;18.60;99.90
19898;DHT22;10111;50.814;4.572;2022-09-03T03:04:23;18.60;99.90
19898;DHT22;10111;50.814;4.572;2022-09-03T03:06:48;18.60;99.90
19898;DHT22;10111;50.814;4.572;2022-09-03T03:09:16;18.60;99.90
19898;DHT22;10111;50.814;4.572;2022-09-03T03:11:41;18.60;99.90
19898;DHT22;10111;50.814;4.572;2022-09-03T03:14:07;18.60;99.90
19898;DHT22;10111;50.814;4.572;2022-09-03T03:16:33;18.60;99.90
19898;DHT22;10111;50.814;4.572;2022-09-03T03:18:58;18.70;99.90
19898;DHT22;10111;50.814;4.572;2022-09-03T03:21:25;18.60;99.90
19898;DHT22;10111;50.814;4.572;2022-09-03T03:23:50;18.70;99.90
19898;DHT22;10111;50.814;4.572;2022-09-03T03:26:18;18.70;99.90
19898;DHT22;10111;50.814;4.572;2022-09-03T03:28:44;18.70;99.90
19898;DHT22;10111;50.814;4.572;2022-09-03T03:31:18;18.70;99.90
19898;DHT22;10111;50.814;4.572;2022-09-03T03:33:53;18.80;99.90
19898;DHT22;10111;50.814;4.572;2022-09-03T03:36:20;18.50;99.90
19898;DHT22;10111;50.814;4.572;2022-09-03T03:38:46;18.50;99.90
19898;DHT22;10111;50.814;4.572;2022-09-03T03:41:20;18.50;99.90
19898;DHT22;10111;50.814;4.572;2022-09-03T03:43:47;18.50;99.90
19898;DHT22;10111;50.814;4.572;2022-09-03T03:46:13;18.50;99.90
19898;DHT22;10111;50.814;4.572;2022-09-03T03:48:39;18.50;99.90
19898;DHT22;10111;50.814;4.572;2022-09-03T03:51:07;18.50;99.90
19898;DHT22;10111;50.814;4.572;2022-09-03T03:53:35;18.50;99.90
19898;DHT22;10111;50.814;4.572;2022-09-03T03:56:02;18.60;99.90
19898;DHT22;10111;50.814;4.572;2022-09-03T03:58:29;18.50;99.90
19898;DHT22;10111;50.814;4.572;2022-09-03T04:01:04;18.50;99.90
19898;DHT22;10111;50.814;4.572;2022-09-03T04:03:30;18.60;99.90
19898;DHT22;10111;50.814;4.572;2022-09-03T04:05:56;18.50;99.90
19898;DHT22;10111;50.814;4.572;2022-09-03T04:08:23;18.60;99.90
19898;DHT22;10111;50.814;4.572;2022-09-03T04:10:49;18.60;99.90
19898;DHT22;10111;50.814;4.572;2022-09-03T04:13:14;18.60;99.90
19898;DHT22;10111;50.814;4.572;2022-09-03T04:15:40;18.60;99.90
19898;DHT22;10111;50.814;4.572;2022-09-03T04:18:06;18.70;99.90
19898;DHT22;10111;50.814;4.572;2022-09-03T04:20:34;18.60;99.90
19898;DHT22;10111;50.814;4.572;2022-09-03T04:23:00;18.70;99.90
19898;DHT22;10111;50.814;4.572;2022-09-03T04:25:26;18.70;99.90
19898;DHT22;10111;50.814;4.572;2022-09-03T04:27:52;18.80;99.90
19898;DHT22;10111;50.814;4.572;2022-09-03T04:30:18;18.90;99.90
19898;DHT22;10111;50.814;4.572;2022-09-03T04:32:44;18.90;99.90
19898;DHT22;10111;50.814;4.572;2022-09-03T04:35:23;18.90;99.90
19898;DHT22;10111;50.814;4.572;2022-09-03T04:37:50;18.90;99.90
19898;DHT22;10111;50.814;4.572;2022-09-03T04:40:16;18.90;99.90
19898;DHT22;10111;50.814;4.572;2022-09-03T04:42:42;18.90;99.90
19898;DHT22;10111;50.814;4.572;2022-09-03T04:45:08;18.90;99.90
19898;DHT22;10111;50.814;4.572;2022-09-03T04:47:34;18.80;99.90
19898;DHT22;10111;50.814;4.572;2022-09-03T04:50:02;18.80;99.90
19898;DHT22;10111;50.814;4.572;2022-09-03T04:52:28;18.80;99.90
19898;DHT22;10111;50.814;4.572;2022-09-03T04:54:56;18.80;99.90
19898;DHT22;10111;50.814;4.572;2022-09-03T04:57:22;18.80;99.90
19898;DHT22;10111;50.814;4.572;2022-09-03T04:59:48;18.80;99.90
19898;DHT22;10111;50.814;4.572;2022-09-03T05:02:13;18.90;99.90
19898;DHT22;10111;50.814;4.572;2022-09-03T05:04:43;18.80;99.90
19898;DHT22;10111;50.814;4.572;2022-09-03T05:07:08;18.80;99.90
19898;DHT22;10111;50.814;4.572;2022-09-03T05:09:34;18.70;99.90
19898;DHT22;10111;50.814;4.572;2022-09-03T05:11:59;18.60;99.90
19898;DHT22;10111;50.814;4.572;2022-09-03T05:14:25;18.60;99.90
19898;DHT22;10111;50.814;4.572;2022-09-03T05:16:51;18.50;99.90
19898;DHT22;10111;50.814;4.572;2022-09-03T05:19:17;18.50;99.90
19898;DHT22;10111;50.814;4.572;2022-09-03T05:21:43;18.40;99.90
19898;DHT22;10111;50.814;4.572;2022-09-03T05:24:09;18.40;99.90
19898;DHT22;10111;50.814;4.572;2022-09-03T05:26:37;18.40;99.90
19898;DHT22;10111;50.814;4.572;2022-09-03T05:29:05;18.40;99.90
19898;DHT22;10111;50.814;4.572;2022-09-03T05:31:36;18.40;99.90
19898;DHT22;10111;50.814;4.572;2022-09-03T05:34:04;18.50;99.90
19898;DHT22;10111;50.814;4.572;2022-09-03T05:36:33;18.50;99.90
19898;DHT22;10111;50.814;4.572;2022-09-03T05:39:05;18.60;99.90
19898;DHT22;10111;50.814;4.572;2022-09-03T05:41:31;18.60;99.90
19898;DHT22;10111;50.814;4.572;2022-09-03T05:43:58;18.60;99.90
19898;DHT22;10111;50.814;4.572;2022-09-03T05:46:26;18.60;99.90
19898;DHT22;10111;50.814;4.572;2022-09-03T05:48:59;18.60;99.90
19898;DHT22;10111;50.814;4.572;2022-09-03T05:51:26;18.60;99.90
19898;DHT22;10111;50.814;4.572;2022-09-03T05:53:52;18.60;99.90
19898;DHT22;10111;50.814;4.572;2022-09-03T05:56:21;18.60;99.90
19898;DHT22;10111;50.814;4.572;2022-09-03T05:58:49;18.60;99.90
19898;DHT22;10111;50.814;4.572;2022-09-03T06:03:54;18.70;99.90
19898;DHT22;10111;50.814;4.572;2022-09-03T06:06:21;18.70;99.90
19898;DHT22;10111;50.814;4.572;2022-09-03T06:08:50;18.70;99.90
19898;DHT22;10111;50.814;4.572;2022-09-03T06:11:16;18.70;99.90
19898;DHT22;10111;50.814;4.572;2022-09-03T06:13:41;18.70;99.90
19898;DHT22;10111;50.814;4.572;2022-09-03T06:16:07;18.70;99.90
19898;DHT22;10111;50.814;4.572;2022-09-03T06:18:33;18.80;99.90
19898;DHT22;10111;50.814;4.572;2022-09-03T06:21:05;18.90;99.90
19898;DHT22;10111;50.814;4.572;2022-09-03T06:23:32;18.90;99.90
19898;DHT22;10111;50.814;4.572;2022-09-03T06:26:05;18.90;99.90
19898;DHT22;10111;50.814;4.572;2022-09-03T06:28:33;19.00;99.90
19898;DHT22;10111;50.814;4.572;2022-09-03T06:30:59;19.00;99.90
19898;DHT22;10111;50.814;4.572;2022-09-03T06:33:27;19.10;99.90
19898;DHT22;10111;50.814;4.572;2022-09-03T06:35:55;19.10;99.90
19898;DHT22;10111;50.814;4.572;2022-09-03T06:38:23;19.30;99.90
19898;DHT22;10111;50.814;4.572;2022-09-03T06:40:57;19.30;99.90
19898;DHT22;10111;50.814;4.572;2022-09-03T06:43:27;19.40;99.90
19898;DHT22;10111;50.814;4.572;2022-09-03T06:45:58;19.30;99.90
19898;DHT22;10111;50.814;4.572;2022-09-03T06:48:25;19.30;99.90
19898;DHT22;10111;50.814;4.572;2022-09-03T06:50:58;19.20;99.90
19898;DHT22;10111;50.814;4.572;2022-09-03T06:53:25;19.20;99.90
19898;DHT22;10111;50.814;4.572;2022-09-03T06:55:56;19.10;99.90
19898;DHT22;10111;50.814;4.572;2022-09-03T06:58:23;19.20;99.90
19898;DHT22;10111;50.814;4.572;2022-09-03T07:00:49;19.30;99.90
19898;DHT22;10111;50.814;4.572;2022-09-03T07:03:17;19.40;99.90
19898;DHT22;10111;50.814;4.572;2022-09-03T07:05:43;19.50;99.90
19898;DHT22;10111;50.814;4.572;2022-09-03T07:08:09;19.60;99.90
19898;DHT22;10111;50.814;4.572;2022-09-03T07:10:36;19.80;99.90
19898;DHT22;10111;50.814;4.572;2022-09-03T07:13:02;19.90;99.90
19898;DHT22;10111;50.814;4.572;2022-09-03T07:15:31;20.00;99.90
19898;DHT22;10111;50.814;4.572;2022-09-03T07:17:57;20.00;99.90
19898;DHT22;10111;50.814;4.572;2022-09-03T07:20:23;20.10;99.90
19898;DHT22;10111;50.814;4.572;2022-09-03T07:22:49;20.20;99.90
19898;DHT22;10111;50.814;4.572;2022-09-03T07:25:14;20.30;99.90
19898;DHT22;10111;50.814;4.572;2022-09-03T07:27:40;20.30;99.90
19898;DHT22;10111;50.814;4.572;2022-09-03T07:30:06;20.50;99.90
19898;DHT22;10111;50.814;4.572;2022-09-03T07:32:34;20.50;99.90
19898;DHT22;10111;50.814;4.572;2022-09-03T07:35:04;20.50;99.90
19898;DHT22;10111;50.814;4.572;2022-09-03T07:37:30;20.70;99.90
19898;DHT22;10111;50.814;4.572;2022-09-03T07:39:56;20.90;99.90
19898;DHT22;10111;50.814;4.572;2022-09-03T07:42:21;21.10;99.90
19898;DHT22;10111;50.814;4.572;2022-09-03T07:44:47;21.40;99.90
19898;DHT22;10111;50.814;4.572;2022-09-03T07:47:13;21.50;99.90
19898;DHT22;10111;50.814;4.572;2022-09-03T07:49:39;21.60;99.90
19898;DHT22;10111;50.814;4.572;2022-09-03T07:52:04;21.70;99.90
19898;DHT22;10111;50.814;4.572;2022-09-03T07:54:31;21.70;99.90
19898;DHT22;10111;50.814;4.572;2022-09-03T07:56:57;21.80;99.90
19898;DHT22;10111;50.814;4.572;2022-09-03T07:59:23;21.90;99.90
19898;DHT22;10111;50.814;4.572;2022-09-03T08:01:49;21.90;99.90
19898;DHT22;10111;50.814;4.572;2022-09-03T08:04:15;22.10;99.90
19898;DHT22;10111;50.814;4.572;2022-09-03T08:06:41;22.30;99.90
19898;DHT22;10111;50.814;4.572;2022-09-03T08:09:09;22.40;99.90
19898;DHT22;10111;50.814;4.572;2022-09-03T08:11:37;22.40;99.90
19898;DHT22;10111;50.814;4.572;2022-09-03T08:14:09;22.60;99.90
19898;DHT22;10111;50.814;4.572;2022-09-03T08:16:37;22.80;99.90
19898;DHT22;10111;50.814;4.572;2022-09-03T08:19:03;22.90;99.90
19898;DHT22;10111;50.814;4.572;2022-09-03T08:21:30;23.10;99.90
19898;DHT22;10111;50.814;4.572;2022-09-03T08:23:56;23.20;99.90
19898;DHT22;10111;50.814;4.572;2022-09-03T08:26:30;23.40;99.90
19898;DHT22;10111;50.814;4.572;2022-09-03T08:28:56;23.50;99.90
19898;DHT22;10111;50.814;4.572;2022-09-03T08:31:23;23.70;99.90
19898;DHT22;10111;50.814;4.572;2022-09-03T08:33:51;23.90;99.90
19898;DHT22;10111;50.814;4.572;2022-09-03T08:36:20;24.10;99.90
19898;DHT22;10111;50.814;4.572;2022-09-03T08:38:48;24.20;99.90
19898;DHT22;10111;50.814;4.572;2022-09-03T08:41:20;24.30;99.90
19898;DHT22;10111;50.814;4.572;2022-09-03T08:46:16;24.20;99.90
19898;DHT22;10111;50.814;4.572;2022-09-03T08:48:42;24.30;99.90
19898;DHT22;10111;50.814;4.572;2022-09-03T08:51:08;24.30;99.90
19898;DHT22;10111;50.814;4.572;2022-09-03T08:53:50;24.50;99.90
19898;DHT22;10111;50.814;4.572;2022-09-03T08:56:27;24.60;99.90
19898;DHT22;10111;50.814;4.572;2022-09-03T08:58:54;24.50;99.90
19898;DHT22;10111;50.814;4.572;2022-09-03T09:07:10;24.10;99.90
19898;DHT22;10111;50.814;4.572;2022-09-03T09:12:46;24.00;99.90
19898;DHT22;10111;50.814;4.572;2022-09-03T09:18:22;24.10;99.90
19898;DHT22;10111;50.814;4.572;2022-09-03T09:20:52;24.00;99.90
19898;DHT22;10111;50.814;4.572;2022-09-03T09:23:26;24.00;99.90
19898;DHT22;10111;50.814;4.572;2022-09-03T09:25:55;23.90;99.90
19898;DHT22;10111;50.814;4.572;2022-09-03T09:28:24;23.90;99.90
19898;DHT22;10111;50.814;4.572;2022-09-03T09:30:54;23.90;99.90
19898;DHT22;10111;50.814;4.572;2022-09-03T09:33:21;23.90;99.90
19898;DHT22;10111;50.814;4.572;2022-09-03T09:35:47;23.90;99.90
19898;DHT22;10111;50.814;4.572;2022-09-03T09:38:14;23.90;99.90
19898;DHT22;10111;50.814;4.572;2022-09-03T09:40:43;23.80;99.90
19898;DHT22;10111;50.814;4.572;2022-09-03T09:43:15;23.70;99.90
19898;DHT22;10111;50.814;4.572;2022-09-03T09:45:49;23.70;99.90
19898;DHT22;10111;50.814;4.572;2022-09-03T09:48:36;23.70;99.90
19898;DHT22;10111;50.814;4.572;2022-09-03T09:51:31;23.80;99.90
19898;DHT22;10111;50.814;4.572;2022-09-03T09:54:13;23.70;99.90
19898;DHT22;10111;50.814;4.572;2022-09-03T09:56:45;23.70;99.90
19898;DHT22;10111;50.814;4.572;2022-09-03T09:59:13;23.70;99.90
19898;DHT22;10111;50.814;4.572;2022-09-03T10:01:41;23.70;99.90
19898;DHT22;10111;50.814;4.572;2022-09-03T10:04:12;23.70;99.90
19898;DHT22;10111;50.814;4.572;2022-09-03T10:06:38;23.70;99.90
19898;DHT22;10111;50.814;4.572;2022-09-03T10:09:23;23.70;99.90
19898;DHT22;10111;50.814;4.572;2022-09-03T10:12:02;23.80;99.90
19898;DHT22;10111;50.814;4.572;2022-09-03T10:14:39;23.90;99.90
19898;DHT22;10111;50.814;4.572;2022-09-03T10:17:18;24.00;99.90
19898;DHT22;10111;50.814;4.572;2022-09-03T10:23:23;24.10;99.90
19898;DHT22;10111;50.814;4.572;2022-09-03T10:26:17;24.20;99.90
19898;DHT22;10111;50.814;4.572;2022-09-03T10:28:46;24.20;99.90
19898;DHT22;10111;50.814;4.572;2022-09-03T10:42:34;24.50;99.90
19898;DHT22;10111;50.814;4.572;2022-09-03T10:45:17;24.60;99.90
19898;DHT22;10111;50.814;4.572;2022-09-03T10:50:46;24.60;99.90
19898;DHT22;10111;50.814;4.572;2022-09-03T10:53:24;24.70;99.90
19898;DHT22;10111;50.814;4.572;2022-09-03T10:56:10;24.80;99.90
19898;DHT22;10111;50.814;4.572;2022-09-03T11:06:56;25.30;99.90
19898;DHT22;10111;50.814;4.572;2022-09-03T11:10:32;25.30;99.90
19898;DHT22;10111;50.814;4.572;2022-09-03T11:13:05;25.30;99.90
19898;DHT22;10111;50.814;4.572;2022-09-03T11:16:02;25.20;99.90
19898;DHT22;10111;50.814;4.572;2022-09-03T11:18:35;25.10;99.90
19898;DHT22;10111;50.814;4.572;2022-09-03T11:21:08;24.90;99.90
19898;DHT22;10111;50.814;4.572;2022-09-03T11:23:40;24.90;99.90
19898;DHT22;10111;50.814;4.572;2022-09-03T11:26:11;25.00;99.90
19898;DHT22;10111;50.814;4.572;2022-09-03T11:34:07;25.00;99.90
19898;DHT22;10111;50.814;4.572;2022-09-03T11:36:36;25.00;99.90
19898;DHT22;10111;50.814;4.572;2022-09-03T11:39:23;24.90;99.90
19898;DHT22;10111;50.814;4.572;2022-09-03T11:41:59;25.00;99.90
19898;DHT22;10111;50.814;4.572;2022-09-03T11:44:36;25.00;99.90
19898;DHT22;10111;50.814;4.572;2022-09-03T11:47:20;25.00;99.90
19898;DHT22;10111;50.814;4.572;2022-09-03T11:49:51;25.00;99.90
19898;DHT22;10111;50.814;4.572;2022-09-03T11:52:29;25.00;99.90
19898;DHT22;10111;50.814;4.572;2022-09-03T11:54:56;25.00;99.90
19898;DHT22;10111;50.814;4.572;2022-09-03T11:57:27;25.00;99.90
19898;DHT22;10111;50.814;4.572;2022-09-03T11:59:54;25.00;99.90
19898;DHT22;10111;50.814;4.572;2022-09-03T12:02:32;25.00;99.90
19898;DHT22;10111;50.814;4.572;2022-09-03T12:13:23;25.30;99.90
19898;DHT22;10111;50.814;4.572;2022-09-03T12:16:10;25.30;99.90
19898;DHT22;10111;50.814;4.572;2022-09-03T12:18:39;25.30;99.90
19898;DHT22;10111;50.814;4.572;2022-09-03T12:21:07;25.50;99.90
19898;DHT22;10111;50.814;4.572;2022-09-03T12:26:07;25.70;99.90
19898;DHT22;10111;50.814;4.572;2022-09-03T12:28:38;25.80;99.90
19898;DHT22;10111;50.814;4.572;2022-09-03T12:31:42;25.80;99.90
19898;DHT22;10111;50.814;4.572;2022-09-03T12:34:14;25.90;99.90
19898;DHT22;10111;50.814;4.572;2022-09-03T12:42:33;26.20;99.90
19898;DHT22;10111;50.814;4.572;2022-09-03T12:45:08;26.20;99.90
19898;DHT22;10111;50.814;4.572;2022-09-03T12:47:38;26.20;99.90
19898;DHT22;10111;50.814;4.572;2022-09-03T12:52:54;25.90;99.90
19898;DHT22;10111;50.814;4.572;2022-09-03T12:55:35;25.80;99.90
19898;DHT22;10111;50.814;4.572;2022-09-03T12:58:05;25.90;99.90
19898;DHT22;10111;50.814;4.572;2022-09-03T13:00:35;26.00;99.90
19898;DHT22;10111;50.814;4.572;2022-09-03T13:03:29;26.10;99.90
19898;DHT22;10111;50.814;4.572;2022-09-03T13:06:01;26.30;99.90
19898;DHT22;10111;50.814;4.572;2022-09-03T13:08:36;26.10;99.90
19898;DHT22;10111;50.814;4.572;2022-09-03T13:11:03;25.90;99.90
19898;DHT22;10111;50.814;4.572;2022-09-03T13:13:36;25.90;99.90
19898;DHT22;10111;50.814;4.572;2022-09-03T13:19:02;26.10;99.90
19898;DHT22;10111;50.814;4.572;2022-09-03T13:21:54;26.20;99.90
19898;DHT22;10111;50.814;4.572;2022-09-03T13:30:19;26.20;99.90
19898;DHT22;10111;50.814;4.572;2022-09-03T13:33:18;26.30;99.90
19898;DHT22;10111;50.814;4.572;2022-09-03T13:36:12;26.50;99.90
19898;DHT22;10111;50.814;4.572;2022-09-03T13:38:58;26.60;99.90
19898;DHT22;10111;50.814;4.572;2022-09-03T13:41:50;26.60;99.90
19898;DHT22;10111;50.814;4.572;2022-09-03T13:44:48;26.60;99.90
19898;DHT22;10111;50.814;4.572;2022-09-03T13:50:07;26.40;99.90
19898;DHT22;10111;50.814;4.572;2022-09-03T13:53:13;26.40;99.90
19898;DHT22;10111;50.814;4.572;2022-09-03T13:55:58;26.40;99.90
19898;DHT22;10111;50.814;4.572;2022-09-03T13:58:50;26.50;99.90
19898;DHT22;10111;50.814;4.572;2022-09-03T14:04:13;26.50;99.90
19898;DHT22;10111;50.814;4.572;2022-09-03T14:06:53;26.50;99.90
19898;DHT22;10111;50.814;4.572;2022-09-03T14:09:34;26.50;99.90
19898;DHT22;10111;50.814;4.572;2022-09-03T14:12:08;26.30;99.90
19898;DHT22;10111;50.814;4.572;2022-09-03T14:20:40;26.00;99.90
19898;DHT22;10111;50.814;4.572;2022-09-03T14:23:42;26.00;99.90
19898;DHT22;10111;50.814;4.572;2022-09-03T14:26:36;25.90;99.90
19898;DHT22;10111;50.814;4.572;2022-09-03T14:29:06;25.90;99.90
19898;DHT22;10111;50.814;4.572;2022-09-03T14:34:31;25.90;99.90
19898;DHT22;10111;50.814;4.572;2022-09-03T14:39:57;25.90;99.90
19898;DHT22;10111;50.814;4.572;2022-09-03T14:42:30;26.00;99.90
19898;DHT22;10111;50.814;4.572;2022-09-03T14:53:18;26.30;99.90
19898;DHT22;10111;50.814;4.572;2022-09-03T14:58:57;26.20;99.90
19898;DHT22;10111;50.814;4.572;2022-09-03T15:01:31;26.10;99.90
19898;DHT22;10111;50.814;4.572;2022-09-03T15:07:17;26.00;99.90
19898;DHT22;10111;50.814;4.572;2022-09-03T15:12:59;26.20;99.90
19898;DHT22;10111;50.814;4.572;2022-09-03T15:30:10;26.10;99.90
19898;DHT22;10111;50.814;4.572;2022-09-03T15:35:44;25.90;99.90
19898;DHT22;10111;50.814;4.572;2022-09-03T15:38:34;25.80;99.90
19898;DHT22;10111;50.814;4.572;2022-09-03T15:41:22;25.80;99.90
19898;DHT22;10111;50.814;4.572;2022-09-03T15:43:50;25.90;99.90
19898;DHT22;10111;50.814;4.572;2022-09-03T15:57:59;25.90;99.90
19898;DHT22;10111;50.814;4.572;2022-09-03T16:03:13;25.70;99.90
19898;DHT22;10111;50.814;4.572;2022-09-03T16:05:51;25.60;99.90
19898;DHT22;10111;50.814;4.572;2022-09-03T16:08:39;25.70;99.90
19898;DHT22;10111;50.814;4.572;2022-09-03T16:11:16;25.90;99.90
19898;DHT22;10111;50.814;4.572;2022-09-03T16:13:54;25.90;99.90
19898;DHT22;10111;50.814;4.572;2022-09-03T16:16:48;25.70;99.90
19898;DHT22;10111;50.814;4.572;2022-09-03T16:19:34;25.50;99.90
19898;DHT22;10111;50.814;4.572;2022-09-03T16:24:43;25.30;99.90
19898;DHT22;10111;50.814;4.572;2022-09-03T16:27:26;25.30;99.90
19898;DHT22;10111;50.814;4.572;2022-09-03T16:30:10;25.20;99.90
19898;DHT22;10111;50.814;4.572;2022-09-03T16:32:51;25.20;99.90
19898;DHT22;10111;50.814;4.572;2022-09-03T16:38:37;25.00;99.90
19898;DHT22;10111;50.814;4.572;2022-09-03T16:44:06;24.90;99.90
19898;DHT22;10111;50.814;4.572;2022-09-03T16:52:27;24.90;99.90
19898;DHT22;10111;50.814;4.572;2022-09-03T17:10:59;25.10;99.90
19898;DHT22;10111;50.814;4.572;2022-09-03T17:13:40;25.00;99.90
19898;DHT22;10111;50.814;4.572;2022-09-03T17:16:35;25.00;99.90
19898;DHT22;10111;50.814;4.572;2022-09-03T17:19:21;24.90;99.90
19898;DHT22;10111;50.814;4.572;2022-09-03T17:22:16;24.80;99.90
19898;DHT22;10111;50.814;4.572;2022-09-03T17:24:46;24.70;99.90
19898;DHT22;10111;50.814;4.572;2022-09-03T17:38:04;24.10;99.90
19898;DHT22;10111;50.814;4.572;2022-09-03T17:40:57;24.10;99.90
19898;DHT22;10111;50.814;4.572;2022-09-03T17:46:23;24.10;99.90
19898;DHT22;10111;50.814;4.572;2022-09-03T17:49:18;24.10;99.90
19898;DHT22;10111;50.814;4.572;2022-09-03T17:51:50;24.10;99.90
19898;DHT22;10111;50.814;4.572;2022-09-03T17:57:20;24.00;99.90
19898;DHT22;10111;50.814;4.572;2022-09-03T18:00:09;23.90;99.90
19898;DHT22;10111;50.814;4.572;2022-09-03T18:02:42;23.70;99.90
19898;DHT22;10111;50.814;4.572;2022-09-03T18:08:11;23.00;99.90
19898;DHT22;10111;50.814;4.572;2022-09-03T18:14:14;22.70;99.90
19898;DHT22;10111;50.814;4.572;2022-09-03T18:17:04;22.50;99.90
19898;DHT22;10111;50.814;4.572;2022-09-03T18:22:26;22.20;99.90
19898;DHT22;10111;50.814;4.572;2022-09-03T18:25:13;22.10;99.90
19898;DHT22;10111;50.814;4.572;2022-09-03T18:28:02;21.90;99.90
19898;DHT22;10111;50.814;4.572;2022-09-03T18:30:48;21.80;99.90
19898;DHT22;10111;50.814;4.572;2022-09-03T18:33:32;21.70;99.90
19898;DHT22;10111;50.814;4.572;2022-09-03T18:36:16;21.80;99.90
19898;DHT22;10111;50.814;4.572;2022-09-03T18:47:37;21.70;99.90
19898;DHT22;10111;50.814;4.572;2022-09-03T18:50:43;21.60;99.90
19898;DHT22;10111;50.814;4.572;2022-09-03T18:56:27;21.50;99.90
19898;DHT22;10111;50.814;4.572;2022-09-03T19:05:33;21.40;99.90
19898;DHT22;10111;50.814;4.572;2022-09-03T19:08:24;21.30;99.90
19898;DHT22;10111;50.814;4.572;2022-09-03T19:13:54;21.20;99.90
19898;DHT22;10111;50.814;4.572;2022-09-03T19:16:51;21.20;99.90
19898;DHT22;10111;50.814;4.572;2022-09-03T19:22:36;21.10;99.90
19898;DHT22;10111;50.814;4.572;2022-09-03T19:25:21;21.10;99.90
19898;DHT22;10111;50.814;4.572;2022-09-03T19:31:04;21.00;99.90
19898;DHT22;10111;50.814;4.572;2022-09-03T19:36:58;21.00;99.90
19898;DHT22;10111;50.814;4.572;2022-09-03T19:54:54;20.90;99.90
19898;DHT22;10111;50.814;4.572;2022-09-03T19:57:40;20.80;99.90
19898;DHT22;10111;50.814;4.572;2022-09-03T20:00:26;20.80;99.90
19898;DHT22;10111;50.814;4.572;2022-09-03T20:03:13;20.80;99.90
19898;DHT22;10111;50.814;4.572;2022-09-03T20:05:58;20.80;99.90
19898;DHT22;10111;50.814;4.572;2022-09-03T20:08:44;20.80;99.90
19898;DHT22;10111;50.814;4.572;2022-09-03T20:11:30;20.80;99.90
19898;DHT22;10111;50.814;4.572;2022-09-03T20:13:57;20.80;99.90
19898;DHT22;10111;50.814;4.572;2022-09-03T20:16:49;20.70;99.90
19898;DHT22;10111;50.814;4.572;2022-09-03T20:22:29;20.40;99.90
19898;DHT22;10111;50.814;4.572;2022-09-03T20:25:07;20.40;99.90
19898;DHT22;10111;50.814;4.572;2022-09-03T20:27:47;20.40;99.90
19898;DHT22;10111;50.814;4.572;2022-09-03T20:30:22;20.40;99.90
19898;DHT22;10111;50.814;4.572;2022-09-03T20:41:38;20.30;99.90
19898;DHT22;10111;50.814;4.572;2022-09-03T20:55:49;19.90;99.90
19898;DHT22;10111;50.814;4.572;2022-09-03T20:58:45;19.90;99.90
19898;DHT22;10111;50.814;4.572;2022-09-03T21:01:22;19.80;99.90
19898;DHT22;10111;50.814;4.572;2022-09-03T21:03:58;19.70;99.90
19898;DHT22;10111;50.814;4.572;2022-09-03T21:07:06;19.70;99.90
19898;DHT22;10111;50.814;4.572;2022-09-03T21:09:47;19.70;99.90
19898;DHT22;10111;50.814;4.572;2022-09-03T21:15:12;19.70;99.90
19898;DHT22;10111;50.814;4.572;2022-09-03T21:20:46;19.60;99.90
19898;DHT22;10111;50.814;4.572;2022-09-03T21:23:24;19.60;99.90
19898;DHT22;10111;50.814;4.572;2022-09-03T21:26:24;19.60;99.90
19898;DHT22;10111;50.814;4.572;2022-09-03T21:29:08;19.50;99.90
19898;DHT22;10111;50.814;4.572;2022-09-03T21:34:24;19.40;99.90
19898;DHT22;10111;50.814;4.572;2022-09-03T21:36:53;19.30;99.90
19898;DHT22;10111;50.814;4.572;2022-09-03T21:39:27;19.20;99.90
19898;DHT22;10111;50.814;4.572;2022-09-03T21:42:08;19.30;99.90
19898;DHT22;10111;50.814;4.572;2022-09-03T21:47:12;19.30;99.90